Terminal Aerodrome Forecast
Issued by NWS Sterling, VA

Current Version | Previous Version | Graphics & Text | Print | Product List | Glossary On
Versions: 1 2 3 4 5 6 7 8 9 10 11 12 13 14 15 16 17 18 19 20 21 22 23
425
FTUS41 KLWX 271434 AAA
TAFDCA
TAF AMD
KDCA 271434Z 2715/2812 33005KT P6SM BKN045 BKN130
     FM271700 VRB04KT P6SM FEW050 SCT200
     FM272000 16005KT P6SM SCT200
     FM280800 VRB04KT P6SM BKN050=

USA.gov is the U.S. government's official web portal to all federal, state and local government web resources and services.